Time;durP1;ratioP1;P1;durP2;ratioP2;P2;SDS_P1;SDS_P2;PMS_P1;PMS_P2;Temp;Humidity;BMP_temperature;BMP_pressure;BME280_temperature;BME280_humidity;BME280_pressure;Samples;Min_cycle;Max_cycle;Signal;HPM_P1;HPM_P2
2021/09/29 00:04:55;;;;;;;15.70;10.90;;;;;;;8.87;76.00;99289.23;463256;1187;99027;-42
2021/09/29 00:15:04;;;;;;;16.00;10.70;;;;;;;8.76;75.88;99281.23;463392;1187;111271;-47
2021/09/29 00:25:15;;;;;;;16.00;11.20;;;;;;;8.69;76.00;99274.99;463340;1187;108591;-43
2021/09/29 00:35:22;;;;;;;21.40;13.50;;;;;;;8.60;76.10;99267.70;463371;1187;99025;-42
2021/09/29 00:45:30;;;;;;;17.70;12.80;;;;;;;8.40;76.29;99260.77;463431;1187;108603;-43
2021/09/29 00:55:36;;;;;;;20.90;11.50;;;;;;;8.26;76.42;99253.30;463300;1187;99252;-46
2021/09/29 01:05:51;;;;;;;20.20;12.10;;;;;;;8.20;76.57;99246.64;463401;1187;112109;-42
2021/09/29 01:16:03;;;;;;;18.50;11.20;;;;;;;8.16;76.77;99249.98;463583;1187;108468;-43
2021/09/29 01:26:14;;;;;;;15.90;9.40;;;;;;;8.06;76.72;99241.21;464150;1167;99015;-45
2021/09/29 01:36:23;;;;;;;14.60;10.40;;;;;;;8.00;76.85;99239.84;463322;1188;108530;-43
2021/09/29 01:46:31;;;;;;;14.70;10.00;;;;;;;7.92;77.12;99229.41;463327;1189;99012;-44
2021/09/29 01:56:39;;;;;;;19.00;10.60;;;;;;;7.85;77.12;99229.96;463147;1190;112567;-43
2021/09/29 02:06:44;;;;;;;13.00;9.80;;;;;;;7.74;77.45;99229.59;463047;1188;108430;-43
2021/09/29 02:16:54;;;;;;;13.00;9.00;;;;;;;7.64;77.49;99231.17;463358;1188;97738;-44
2021/09/29 02:27:01;;;;;;;19.40;10.30;;;;;;;7.56;77.51;99223.89;463515;1188;108483;-43
2021/09/29 02:37:09;;;;;;;16.50;10.80;;;;;;;7.41;77.76;99220.70;463405;1190;99101;-42
2021/09/29 02:47:17;;;;;;;16.40;10.00;;;;;;;7.32;77.55;99218.34;463332;1190;112093;-43
2021/09/29 02:57:24;;;;;;;14.10;9.00;;;;;;;7.21;77.67;99206.42;463420;1189;108046;-43
2021/09/29 03:07:31;;;;;;;14.90;9.20;;;;;;;7.24;77.69;99199.02;463191;1189;99037;-44
2021/09/29 03:17:38;;;;;;;16.10;9.80;;;;;;;7.12;77.93;99190.91;463243;1189;108993;-43
2021/09/29 03:27:45;;;;;;;11.60;8.20;;;;;;;7.03;78.02;99178.59;463553;1190;99056;-43
2021/09/29 03:37:53;;;;;;;16.80;9.10;;;;;;;6.97;78.03;99170.69;463126;1189;112102;-44
2021/09/29 03:48:00;;;;;;;11.40;7.70;;;;;;;6.93;78.22;99164.23;463552;1189;108554;-44
2021/09/29 03:58:06;;;;;;;14.90;9.90;;;;;;;6.85;78.10;99167.81;463588;1193;99057;-44
2021/09/29 04:08:14;;;;;;;19.10;11.30;;;;;;;6.64;78.29;99161.02;463337;1190;108494;-44
2021/09/29 04:18:20;;;;;;;17.00;8.40;;;;;;;6.50;78.29;99157.29;463248;1189;99034;-43
2021/09/29 04:28:27;;;;;;;11.80;8.50;;;;;;;6.41;78.34;99145.11;463218;1189;112098;-43
2021/09/29 04:38:34;;;;;;;13.60;8.50;;;;;;;6.52;78.48;99142.39;463333;1188;108466;-43
2021/09/29 04:48:42;;;;;;;15.60;8.40;;;;;;;6.46;78.43;99134.95;463300;1188;98047;-43
2021/09/29 04:58:49;;;;;;;25.00;9.70;;;;;;;6.49;78.46;99132.06;463176;1188;108582;-44
2021/09/29 05:08:56;;;;;;;20.50;8.50;;;;;;;6.51;78.55;99132.88;463456;1190;99032;-42
2021/09/29 05:19:02;;;;;;;15.70;9.40;;;;;;;6.58;78.73;99130.66;463246;1189;111283;-43
2021/09/29 05:29:11;;;;;;;22.80;13.20;;;;;;;6.83;78.93;99128.86;463351;1190;108468;-43
2021/09/29 05:39:19;;;;;;;13.30;9.60;;;;;;;7.14;78.54;99124.77;463303;1189;99018;-42
2021/09/29 05:49:26;;;;;;;15.70;9.60;;;;;;;7.74;79.07;99120.08;463378;1190;108476;-44
2021/09/29 05:59:33;;;;;;;17.60;10.50;;;;;;;8.70;78.52;99112.16;463316;1190;99012;-42
2021/09/29 06:19:46;;;;;;;24.60;10.80;;;;;;;9.65;76.83;99094.48;463331;1190;106553;-42
2021/09/29 06:29:54;;;;;;;14.50;11.00;;;;;;;10.04;76.57;99088.65;463270;1189;99053;-43
2021/09/29 06:40:01;;;;;;;18.40;12.60;;;;;;;9.78;75.54;99083.77;463314;1189;108462;-42
2021/09/29 06:50:12;;;;;;;18.00;12.50;;;;;;;9.18;75.66;99085.13;463335;1190;98430;-45
2021/09/29 07:00:16;;;;;;;24.70;17.80;;;;;;;8.82;76.15;99087.91;463291;1190;112119;-42
2021/09/29 07:10:24;;;;;;;25.80;16.30;;;;;;;8.50;76.78;99100.95;463296;1180;109287;-43
2021/09/29 07:20:31;;;;;;;33.10;21.20;;;;;;;8.35;76.93;99114.61;462853;1189;99025;-45
2021/09/29 07:30:41;;;;;;;30.20;19.90;;;;;;;8.44;77.26;99124.48;463092;1190;108219;-42
2021/09/29 07:40:53;;;;;;;40.00;26.30;;;;;;;8.67;77.33;99130.58;463265;1190;99053;-42
2021/09/29 07:51:02;;;;;;;38.40;20.10;;;;;;;8.39;77.47;99122.13;463367;1190;112824;-43
2021/09/29 08:01:09;;;;;;;31.30;20.00;;;;;;;8.55;77.66;99113.38;463386;1190;108356;-42
2021/09/29 09:23:05;;;;;;;37.90;27.50;;;;;;;9.58;77.71;99080.21;463172;1190;99004;-43
2021/09/29 09:33:22;;;;;;;42.10;30.60;;;;;;;9.64;77.81;99079.16;463288;1190;114006;-42
2021/09/29 09:43:31;;;;;;;38.80;24.50;;;;;;;9.86;77.65;99090.06;463327;1190;108474;-42
2021/09/29 09:53:38;;;;;;;30.90;20.30;;;;;;;9.91;77.48;99096.45;463205;1193;99005;-45
2021/09/29 10:03:46;;;;;;;34.90;23.70;;;;;;;9.96;77.55;99089.90;463249;1190;108332;-42
2021/09/29 12:08:32;;;;;;;26.70;17.90;;;;;;;12.04;74.00;99008.20;463293;1188;112365;-42
2021/09/29 12:18:40;;;;;;;28.10;19.30;;;;;;;12.24;74.12;99006.69;463275;1190;108474;-46
2021/09/29 12:39:16;;;;;;;23.60;17.00;;;;;;;12.30;73.86;98997.77;463294;1190;109439;-43
2021/09/29 12:49:23;;;;;;;33.30;18.60;;;;;;;12.54;73.86;98996.01;463438;1189;99052;-42
2021/09/29 12:59:29;;;;;;;27.30;19.40;;;;;;;12.81;73.67;99001.13;463257;1189;112035;-43
2021/09/29 13:09:36;;;;;;;27.00;19.10;;;;;;;13.16;73.18;99002.42;463142;1190;108573;-42
2021/09/29 13:19:48;;;;;;;29.70;20.60;;;;;;;13.16;73.09;99006.45;463350;1188;99015;-46
2021/09/29 13:40:21;;;;;;;;;;;;;;;13.29;73.07;98996.93;463532;1189;98488;-42
2021/09/29 13:50:29;;;;;;;36.80;24.40;;;;;;;13.32;72.82;98990.50;463457;1189;110761;-42
2021/09/29 14:31:37;;;;;;;34.30;22.20;;;;;;;13.05;73.36;98975.48;463380;1188;99016;-44
2021/09/29 14:41:45;;;;;;;33.10;21.40;;;;;;;12.97;73.51;98970.64;463410;1188;112522;-46
2021/09/29 14:51:52;;;;;;;33.60;21.10;;;;;;;12.97;73.78;98974.41;463302;1190;108444;-42
2021/09/29 15:01:59;;;;;;;33.60;22.70;;;;;;;12.93;73.97;98975.45;463533;1190;98568;-42
2021/09/29 15:12:09;;;;;;;38.20;22.00;;;;;;;12.95;74.13;98973.75;463276;1189;108797;-41
2021/09/29 16:45:28;;;;;;;105.60;52.30;;;;;;;12.66;75.33;98993.50;463378;1189;97827;-43
2021/09/29 16:55:37;;;;;;;63.70;39.00;;;;;;;12.65;75.71;98997.14;463569;1180;108226;-42
2021/09/29 17:05:44;;;;;;;55.50;35.00;;;;;;;12.73;75.65;98999.84;463166;1190;99121;-45
2021/09/29 17:15:56;;;;;;;54.60;35.10;;;;;;;12.77;75.80;98995.73;463281;1190;112308;-44
2021/09/29 17:26:01;;;;;;;56.40;30.60;;;;;;;12.84;75.83;99000.34;463264;1190;108381;-46
2021/09/29 17:56:45;;;;;;;53.20;31.80;;;;;;;12.86;76.38;99004.37;463249;1188;99018;-44
2021/09/29 18:17:09;;;;;;;75.10;46.60;;;;;;;12.87;76.46;99018.20;463266;1190;108482;-44
2021/09/29 18:27:16;;;;;;;102.10;60.60;;;;;;;12.98;76.56;99026.78;463205;1190;99108;-42
2021/09/29 18:47:48;;;;;;;105.00;60.60;;;;;;;12.71;76.77;99028.09;463411;1190;99124;-41
2021/09/29 19:08:22;;;;;;;72.00;44.50;;;;;;;12.53;76.96;99017.25;463085;1190;107959;-41
2021/09/29 19:18:29;;;;;;;74.30;45.20;;;;;;;12.55;77.32;99015.70;463320;1190;99004;-41
2021/09/29 19:38:44;;;;;;;79.10;43.60;;;;;;;12.62;77.62;99011.83;463300;1190;99008;-43
2021/09/29 20:09:27;;;;;;;70.90;43.00;;;;;;;12.77;77.83;99016.11;463359;1190;98574;-42
2021/09/29 20:19:34;;;;;;;74.50;46.40;;;;;;;12.75;77.72;99020.59;463297;1189;108726;-42
2021/09/29 20:29:42;;;;;;;86.20;52.20;;;;;;;12.80;77.86;99022.08;463334;1190;99005;-41
2021/09/29 20:50:17;;;;;;;93.00;51.60;;;;;;;12.70;78.21;99021.91;463163;1190;108231;-42
2021/09/29 21:00:23;;;;;;;82.80;50.10;;;;;;;12.69;78.29;99024.55;463217;1189;98558;-46
2021/09/29 21:10:31;;;;;;;80.60;52.70;;;;;;;12.58;78.53;99032.92;463379;1188;107748;-42
2021/09/29 21:20:40;;;;;;;79.10;50.00;;;;;;;12.50;78.59;99036.55;463511;1189;98590;-43
2021/09/29 21:30:49;;;;;;;82.00;49.60;;;;;;;12.48;78.86;99046.84;463237;1190;111191;-42
2021/09/29 23:34:39;;;;;;;78.00;48.10;;;;;;;12.73;80.24;99117.48;463248;1189;99019;-42
2021/09/29 23:44:47;;;;;;;76.50;47.50;;;;;;;12.78;80.14;99121.74;463335;1189;108487;-42
2021/09/29 23:54:54;;;;;;;74.10;45.40;;;;;;;12.80;80.39;99133.64;463286;1190;98610;-45
